createdAt,value
2019-02-02T00:00:16.772Z,75.08
2019-02-02T00:02:16.806Z,74.82
2019-02-02T00:06:16.790Z,74.60
2019-02-02T00:08:16.805Z,74.42
2019-02-02T00:12:16.803Z,74.88
2019-02-02T00:14:16.785Z,74.72
2019-02-02T00:18:16.794Z,74.85
2019-02-02T00:20:16.810Z,74.64
2019-02-02T00:24:21.831Z,74.58
2019-02-02T00:26:21.727Z,75.04
2019-02-02T00:30:16.809Z,74.94
2019-02-02T00:32:16.779Z,74.79
2019-02-02T00:36:16.794Z,74.86
2019-02-02T00:38:17.133Z,74.82
2019-02-02T00:42:26.024Z,74.92
2019-02-02T00:44:16.801Z,74.61
2019-02-02T00:48:17.890Z,74.49
2019-02-02T00:50:16.826Z,74.97
2019-02-02T00:54:16.786Z,74.83
2019-02-02T00:56:16.798Z,74.61
2019-02-02T01:00:16.841Z,74.58
2019-02-02T01:02:16.792Z,74.81
2019-02-02T01:06:16.814Z,74.60
2019-02-02T01:08:16.794Z,74.74
2019-02-02T01:12:16.807Z,75.03
2019-02-02T01:14:16.821Z,74.77
2019-02-02T01:18:18.376Z,74.88
2019-02-02T01:20:16.805Z,74.79
2019-02-02T01:24:16.790Z,74.65
2019-02-02T01:26:16.803Z,75.05
2019-02-02T01:30:16.821Z,74.83
2019-02-02T01:32:16.789Z,74.77
2019-02-02T01:36:16.844Z,74.58
2019-02-02T01:38:16.829Z,74.85
2019-02-02T01:42:21.260Z,74.54
2019-02-02T01:44:16.805Z,74.86
2019-02-02T01:48:16.797Z,74.72
2019-02-02T01:50:16.826Z,74.78
2019-02-02T01:54:16.798Z,74.69
2019-02-02T01:56:16.788Z,74.54
2019-02-02T02:00:16.806Z,74.72
2019-02-02T02:02:16.824Z,74.84
2019-02-02T02:06:16.832Z,74.91
2019-02-02T02:08:16.834Z,74.68
2019-02-02T02:12:16.823Z,74.58
2019-02-02T02:14:16.832Z,74.74
2019-02-02T02:18:16.801Z,74.84
2019-02-02T02:20:16.832Z,74.91
2019-02-02T02:24:16.808Z,74.83
2019-02-02T02:26:16.837Z,74.86
2019-02-02T02:30:16.807Z,74.73
2019-02-02T02:32:16.819Z,74.54
2019-02-02T02:36:16.819Z,74.66
2019-02-02T02:38:16.815Z,74.85
2019-02-02T02:42:16.828Z,74.60
2019-02-02T02:44:16.844Z,74.60
2019-02-02T02:48:16.829Z,74.84
2019-02-02T02:50:16.857Z,74.61
2019-02-02T02:54:21.980Z,74.87
2019-02-02T02:56:16.847Z,74.53
2019-02-02T03:00:16.824Z,74.69
2019-02-02T03:02:16.853Z,74.75
2019-02-02T03:06:16.829Z,74.72
2019-02-02T03:08:21.809Z,74.68
2019-02-02T03:12:16.808Z,74.48
2019-02-02T03:14:16.837Z,74.61
2019-02-02T03:18:16.826Z,74.66
2019-02-02T03:20:16.943Z,74.49
2019-02-02T03:24:21.819Z,74.52
2019-02-02T03:26:16.867Z,74.74
2019-02-02T03:30:21.275Z,74.74
2019-02-02T03:32:16.808Z,74.65
2019-02-02T03:36:16.852Z,74.59
2019-02-02T03:38:16.820Z,74.39
2019-02-02T03:42:16.853Z,74.75
2019-02-02T03:46:16.812Z,74.71
2019-02-02T03:48:16.840Z,74.79
2019-02-02T03:52:21.804Z,74.68
2019-02-02T03:56:21.851Z,74.71
2019-02-02T03:58:16.828Z,74.49
2019-02-02T04:02:16.851Z,74.51
2019-02-02T04:04:16.859Z,74.75
2019-02-02T04:08:16.865Z,74.42
2019-02-02T04:10:16.820Z,74.64
2019-02-02T04:14:16.874Z,74.65
2019-02-02T04:16:16.828Z,74.63
2019-02-02T04:20:16.837Z,74.83
2019-02-02T04:22:16.856Z,74.75
2019-02-02T04:26:16.843Z,74.61
2019-02-02T04:28:16.907Z,74.50
2019-02-02T04:32:16.833Z,74.53
2019-02-02T04:34:16.834Z,74.75
2019-02-02T04:38:16.839Z,74.68
2019-02-02T04:40:16.828Z,74.74
2019-02-02T04:44:16.848Z,74.65
2019-02-02T04:46:16.827Z,74.73
2019-02-02T04:50:16.891Z,74.65
2019-02-02T04:52:16.850Z,74.54
2019-02-02T04:56:16.876Z,74.59
2019-02-02T04:58:16.884Z,74.59
2019-02-02T05:02:16.820Z,74.59
2019-02-02T05:04:16.860Z,74.70
2019-02-02T05:08:16.867Z,74.68
2019-02-02T05:10:16.871Z,74.40
2019-02-02T05:14:16.862Z,74.65
2019-02-02T05:16:16.871Z,74.70
2019-02-02T05:20:16.842Z,74.75
2019-02-02T05:22:16.866Z,74.34
2019-02-02T05:26:16.852Z,74.60
2019-02-02T05:28:16.887Z,74.62
2019-02-02T05:32:16.852Z,74.62
2019-02-02T05:34:16.859Z,74.46
2019-02-02T05:38:16.869Z,74.67
2019-02-02T05:40:16.843Z,74.75
2019-02-02T05:44:16.896Z,74.56
2019-02-02T05:46:20.445Z,74.50
2019-02-02T05:50:20.603Z,74.58
2019-02-02T05:52:22.033Z,74.62
2019-02-02T05:56:16.884Z,74.68
2019-02-02T05:58:17.783Z,74.53
2019-02-02T06:02:27.017Z,74.76
2019-02-02T06:04:16.843Z,74.77
2019-02-02T06:08:16.855Z,74.44
2019-02-02T06:10:16.880Z,74.64
2019-02-02T06:14:16.894Z,74.62
2019-02-02T06:16:16.887Z,74.59
2019-02-02T06:20:16.886Z,74.67
2019-02-02T06:22:16.862Z,74.60
2019-02-02T06:26:16.855Z,74.63
2019-02-02T06:28:16.861Z,74.28
2019-02-02T06:32:16.862Z,74.44
2019-02-02T06:34:16.917Z,74.56
2019-02-02T06:38:17.140Z,74.61
2019-02-02T06:40:17.008Z,74.31
2019-02-02T06:44:16.891Z,74.31
2019-02-02T06:46:16.918Z,74.76
2019-02-02T06:50:16.894Z,74.61
2019-02-02T06:52:16.905Z,74.37
2019-02-02T06:56:16.904Z,74.34
2019-02-02T06:58:16.877Z,74.65
2019-02-02T07:02:16.901Z,74.55
2019-02-02T07:04:16.927Z,74.37
2019-02-02T07:08:16.918Z,74.67
2019-02-02T07:10:17.182Z,74.24
2019-02-02T07:14:16.892Z,74.42
2019-02-02T07:16:16.888Z,74.66
2019-02-02T07:20:16.881Z,74.57
2019-02-02T07:22:16.879Z,74.38
2019-02-02T07:26:16.920Z,74.51
2019-02-02T07:28:16.882Z,74.62
2019-02-02T07:32:20.595Z,74.61
2019-02-02T07:34:16.878Z,74.55
2019-02-02T07:38:16.889Z,74.43
2019-02-02T07:40:16.869Z,74.22
2019-02-02T07:44:16.896Z,74.52
2019-02-02T07:46:16.879Z,74.66
2019-02-02T07:50:16.887Z,74.59
2019-02-02T07:52:16.963Z,74.41
2019-02-02T07:56:16.932Z,74.42
2019-02-02T07:58:16.899Z,74.46
2019-02-02T08:06:16.915Z,74.42
2019-02-02T08:08:17.206Z,74.49
2019-02-02T08:14:16.917Z,74.66
2019-02-02T08:16:16.906Z,74.65
2019-02-02T08:20:16.915Z,74.18
2019-02-02T08:22:16.898Z,74.22
2019-02-02T08:26:16.954Z,74.17
2019-02-02T08:28:22.012Z,74.15
2019-02-02T08:32:16.899Z,74.60
2019-02-02T08:34:16.921Z,74.14
2019-02-02T08:38:17.030Z,74.20
2019-02-02T08:40:16.931Z,74.27
2019-02-02T08:44:16.921Z,74.55
2019-02-02T08:46:19.019Z,74.64
2019-02-02T08:50:17.096Z,74.30
2019-02-02T08:52:21.327Z,74.49
2019-02-02T08:56:16.910Z,74.34
2019-02-02T08:58:17.238Z,74.69
2019-02-02T09:02:16.920Z,74.52
2019-02-02T09:05:16.328Z,74.42
2019-02-02T09:18:22.272Z,74.35
2019-02-02T09:20:22.204Z,74.28
2019-02-02T09:22:22.194Z,74.55
2019-02-02T09:24:22.211Z,74.37
2019-02-02T09:26:26.761Z,74.74
2019-02-02T09:28:27.274Z,74.54
2019-02-02T09:30:27.688Z,74.46
2019-02-02T09:32:22.220Z,74.32
2019-02-02T09:34:24.123Z,74.49
2019-02-02T09:36:22.426Z,74.55
2019-02-02T09:38:22.229Z,74.56
2019-02-02T09:40:25.159Z,74.31
2019-02-02T09:42:22.267Z,74.42
2019-02-02T09:44:22.220Z,74.49
2019-02-02T09:46:22.213Z,74.35
2019-02-02T09:48:49.613Z,74.51
2019-02-02T09:50:24.447Z,74.27
2019-02-02T09:52:22.224Z,74.37
2019-02-02T09:54:26.568Z,74.55
2019-02-02T09:56:22.213Z,74.31
2019-02-02T09:58:22.223Z,74.59
2019-02-02T10:00:22.235Z,74.53
2019-02-02T10:02:22.360Z,74.13
2019-02-02T10:04:22.240Z,74.28
2019-02-02T10:06:26.072Z,74.29
2019-02-02T10:08:22.259Z,74.46
2019-02-02T10:10:22.244Z,74.62
2019-02-02T10:12:22.260Z,74.41
2019-02-02T10:16:03.027Z,74.46
2019-02-02T10:18:02.872Z,74.54
2019-02-02T10:20:07.904Z,74.42
2019-02-02T10:26:08.275Z,74.31
2019-02-02T10:28:02.896Z,74.75
2019-02-02T10:32:02.922Z,74.37
2019-02-02T10:34:02.906Z,74.33
2019-02-02T10:38:07.803Z,74.38
2019-02-02T10:40:03.855Z,74.37
2019-02-02T10:44:02.913Z,74.43
2019-02-02T10:46:02.888Z,74.35
2019-02-02T10:50:02.891Z,74.30
2019-02-02T10:52:07.893Z,74.36
2019-02-02T10:56:02.872Z,74.54
2019-02-02T10:58:02.901Z,74.52
2019-02-02T11:02:02.934Z,74.33
2019-02-02T11:04:02.909Z,74.30
2019-02-02T11:08:08.060Z,74.69
2019-02-02T11:10:02.986Z,74.54
2019-02-02T11:14:03.020Z,74.56
2019-02-02T11:18:03.067Z,74.58
2019-02-02T11:20:02.941Z,74.60
2019-02-02T11:24:02.981Z,74.45
2019-02-02T11:26:02.908Z,74.39
2019-02-02T11:30:02.901Z,74.44
2019-02-02T11:32:03.269Z,74.62
2019-02-02T11:36:02.899Z,74.60
2019-02-02T11:38:02.892Z,74.50
2019-02-02T11:42:08.114Z,74.34
2019-02-02T11:44:02.895Z,74.47
2019-02-02T11:48:02.913Z,74.27
2019-02-02T11:50:02.919Z,74.36
2019-02-02T11:54:02.986Z,74.52
2019-02-02T11:56:02.959Z,74.45
2019-02-02T12:00:02.908Z,74.41
2019-02-02T12:02:14.503Z,74.44
2019-02-02T12:06:02.930Z,74.72
2019-02-02T12:08:02.924Z,74.55
2019-02-02T12:12:02.920Z,74.54
2019-02-02T12:14:02.939Z,74.34
2019-02-02T12:18:02.927Z,74.57
2019-02-02T12:20:02.938Z,74.43
2019-02-02T12:24:13.377Z,74.59
2019-02-02T12:26:02.935Z,74.72
2019-02-02T12:30:02.936Z,74.70
2019-02-02T12:32:02.930Z,74.42
2019-02-02T12:36:03.064Z,74.29
2019-02-02T12:38:02.931Z,74.57
2019-02-02T12:42:07.960Z,74.35
2019-02-02T12:44:02.956Z,74.55
2019-02-02T12:48:08.103Z,74.72
2019-02-02T12:50:10.031Z,74.78
2019-02-02T12:54:02.933Z,74.55
2019-02-02T12:56:07.655Z,74.49
2019-02-02T13:00:02.922Z,74.51
2019-02-02T13:02:02.970Z,74.68
2019-02-02T13:06:02.939Z,74.43
2019-02-02T13:08:05.133Z,74.73
2019-02-02T13:12:02.965Z,74.58
2019-02-02T13:14:02.931Z,74.39
2019-02-02T13:18:02.917Z,74.52
2019-02-02T13:20:07.969Z,74.64
2019-02-02T13:26:05.420Z,74.65
2019-02-02T13:34:21.540Z,74.53
2019-02-02T13:36:31.429Z,74.70
2019-02-02T13:38:27.829Z,74.82
2019-02-02T13:44:27.650Z,75.03
2019-02-02T13:46:27.741Z,74.68
2019-02-02T13:50:27.715Z,74.79
2019-02-02T13:52:27.785Z,74.58
2019-02-02T13:56:27.660Z,74.73
2019-02-02T13:58:27.865Z,74.74
2019-02-02T14:02:27.762Z,74.50
2019-02-02T14:04:27.690Z,74.89
2019-02-02T14:08:27.749Z,75.10
2019-02-02T14:10:28.723Z,74.67
2019-02-02T14:14:27.814Z,75.05
2019-02-02T14:16:32.436Z,75.03
2019-02-02T14:20:28.199Z,75.08
2019-02-02T14:22:27.794Z,74.84
2019-02-02T14:26:27.799Z,74.60
2019-02-02T14:28:31.426Z,75.31
2019-02-02T14:32:32.831Z,74.69
2019-02-02T14:34:39.580Z,75.01
2019-02-02T14:38:27.703Z,74.71
2019-02-02T14:40:27.873Z,75.23
2019-02-02T14:44:27.788Z,74.98
2019-02-02T14:46:27.701Z,74.55
2019-02-02T14:50:27.826Z,74.87
2019-02-02T14:52:27.888Z,75.32
2019-02-02T14:56:27.723Z,74.91
2019-02-02T14:58:27.930Z,75.21
2019-02-02T15:02:32.894Z,75.26
2019-02-02T15:04:27.723Z,75.46
2019-02-02T15:10:27.848Z,75.09
2019-02-02T15:12:36.930Z,75.22
2019-02-02T15:16:32.888Z,75.50
2019-02-02T15:18:27.960Z,75.16
2019-02-02T15:22:27.856Z,75.22
2019-02-02T15:24:31.293Z,75.44
2019-02-02T15:28:27.964Z,75.27
2019-02-02T15:30:27.887Z,75.35
2019-02-02T15:34:27.930Z,75.16
2019-02-02T15:36:27.842Z,75.42
2019-02-02T15:40:31.271Z,75.08
2019-02-02T15:42:27.865Z,75.20
2019-02-02T15:48:27.869Z,75.12
2019-02-02T15:50:27.795Z,75.83
2019-02-02T15:53:17.362Z,75.13
2019-02-02T15:55:17.271Z,75.38
2019-02-02T15:57:17.283Z,75.08
2019-02-02T15:59:17.301Z,75.62
2019-02-02T16:01:18.308Z,75.63
2019-02-02T16:03:17.324Z,75.35
2019-02-02T16:09:17.285Z,75.26
2019-02-02T16:11:17.270Z,75.55
2019-02-02T16:15:17.296Z,75.82
2019-02-02T16:17:22.280Z,75.96
2019-02-02T16:21:17.330Z,76.11
2019-02-02T16:23:17.321Z,75.94
2019-02-02T16:27:17.333Z,76.17
2019-02-02T16:29:17.310Z,76.20
2019-02-02T16:33:22.323Z,76.29
2019-02-02T16:35:21.724Z,76.03
2019-02-02T16:39:17.288Z,76.26
2019-02-02T16:41:17.346Z,76.09
2019-02-02T16:47:17.347Z,76.14
2019-02-02T16:49:17.319Z,76.07
2019-02-02T16:53:17.291Z,76.07
2019-02-02T16:55:17.333Z,75.87
2019-02-02T16:59:17.310Z,75.85
2019-02-02T17:01:17.326Z,75.98
2019-02-02T17:05:17.327Z,75.98
2019-02-02T17:07:22.255Z,76.05
2019-02-02T17:11:17.305Z,76.17
2019-02-02T17:13:22.342Z,76.11
2019-02-02T17:17:17.310Z,75.82
2019-02-02T17:19:17.377Z,76.21
2019-02-02T17:23:17.333Z,75.85
2019-02-02T17:25:17.322Z,75.87
2019-02-02T17:29:17.322Z,76.20
2019-02-02T17:31:17.348Z,76.17
2019-02-02T17:35:17.321Z,75.98
2019-02-02T17:37:17.313Z,76.02
2019-02-02T17:41:03.089Z,75.63
2019-02-02T17:43:00.656Z,76.06
2019-02-02T17:45:00.620Z,75.92
2019-02-02T17:47:00.726Z,75.80
2019-02-02T17:49:05.755Z,76.31
2019-02-02T17:51:00.678Z,75.73
2019-02-02T17:53:00.727Z,75.81
2019-02-02T17:55:00.634Z,75.93
2019-02-02T17:57:04.823Z,76.04
2019-02-02T17:59:00.774Z,75.98
2019-02-02T18:01:05.658Z,76.22
2019-02-02T18:03:02.501Z,76.27
2019-02-02T18:05:07.038Z,76.05
2019-02-02T18:07:05.684Z,76.18
2019-02-02T18:09:05.191Z,76.00
2019-02-02T18:11:00.717Z,76.12
2019-02-02T18:13:00.708Z,75.79
2019-02-02T18:15:00.712Z,76.04
2019-02-02T18:17:00.709Z,76.11
2019-02-02T18:19:00.666Z,75.92
2019-02-02T18:21:00.691Z,76.11
2019-02-02T18:23:00.705Z,76.21
2019-02-02T18:25:05.171Z,76.19
2019-02-02T18:27:06.245Z,75.93
2019-02-02T18:29:05.132Z,76.11
2019-02-02T18:31:01.703Z,76.20
2019-02-02T18:33:02.697Z,76.21
2019-02-02T18:35:05.721Z,76.03
2019-02-02T18:37:01.506Z,76.03
2019-02-02T18:39:00.627Z,76.00
2019-02-02T18:41:00.745Z,76.32
2019-02-02T18:43:00.693Z,76.08
2019-02-02T18:45:00.698Z,75.88
2019-02-02T18:47:00.722Z,76.08
2019-02-02T18:49:02.892Z,76.31
2019-02-02T18:51:00.703Z,75.63
2019-02-02T18:53:00.745Z,75.74
2019-02-02T18:55:00.716Z,76.03
2019-02-02T18:57:05.201Z,75.92
2019-02-02T18:59:00.713Z,76.15
2019-02-02T19:01:00.727Z,76.02
2019-02-02T19:03:01.046Z,75.95
2019-02-02T19:05:05.239Z,75.98
2019-02-02T19:07:00.702Z,76.09
2019-02-02T19:09:04.613Z,75.95
2019-02-02T19:11:03.573Z,75.81
2019-02-02T19:13:04.805Z,76.09
2019-02-02T19:15:03.048Z,75.97
2019-02-02T19:17:03.171Z,76.18
2019-02-02T19:19:01.725Z,76.14
2019-02-02T19:21:05.545Z,76.02
2019-02-02T19:23:00.731Z,76.22
2019-02-02T19:25:00.715Z,75.97
2019-02-02T19:27:05.708Z,76.00
2019-02-02T19:29:00.735Z,75.99
2019-02-02T19:31:00.732Z,75.91
2019-02-02T19:33:43.290Z,76.19
2019-02-02T19:35:43.253Z,76.12
2019-02-02T19:37:43.273Z,76.02
2019-02-02T19:39:45.104Z,76.17
2019-02-02T19:41:43.246Z,76.11
2019-02-02T19:43:43.308Z,76.05
2019-02-02T19:45:48.274Z,75.94
2019-02-02T19:47:48.270Z,76.08
2019-02-02T19:49:43.282Z,76.35
2019-02-02T19:51:43.300Z,75.91
2019-02-02T19:53:43.273Z,75.96
2019-02-02T19:55:43.289Z,76.11
2019-02-02T19:57:43.314Z,75.97
2019-02-02T19:59:43.279Z,76.14
2019-02-02T20:01:43.428Z,76.27
2019-02-02T20:03:43.490Z,76.04
2019-02-02T20:05:45.238Z,75.96
2019-02-02T20:07:43.269Z,76.12
2019-02-02T20:09:43.340Z,75.98
2019-02-02T20:11:43.280Z,76.16
2019-02-02T20:13:43.272Z,76.19
2019-02-02T20:15:43.325Z,76.03
2019-02-02T20:17:45.572Z,76.26
2019-02-02T20:19:43.301Z,76.17
2019-02-02T20:21:44.648Z,75.96
2019-02-02T20:23:43.292Z,76.11
2019-02-02T20:25:47.730Z,75.98
2019-02-02T20:27:43.323Z,76.29
2019-02-02T20:29:43.294Z,76.27
2019-02-02T20:31:44.187Z,75.99
2019-02-02T20:33:43.379Z,76.45
2019-02-02T20:35:48.580Z,76.04
2019-02-02T20:37:43.313Z,75.93
2019-02-02T20:39:43.342Z,76.08
2019-02-02T20:41:43.281Z,76.04
2019-02-02T20:43:48.452Z,76.05
2019-02-02T20:45:43.319Z,76.44
2019-02-02T20:47:43.291Z,75.88
2019-02-02T20:49:45.544Z,75.94
2019-02-02T20:51:43.335Z,76.20
2019-02-02T20:53:44.261Z,75.93
2019-02-02T20:55:43.323Z,76.03
2019-02-02T20:59:14.662Z,76.11
2019-02-02T21:01:14.455Z,76.04
2019-02-02T21:03:14.469Z,76.00
2019-02-02T21:05:19.475Z,76.20
2019-02-02T21:07:14.478Z,76.06
2019-02-02T21:09:14.474Z,76.14
2019-02-02T21:11:14.492Z,76.16
2019-02-02T21:13:14.584Z,76.04
2019-02-02T21:15:14.458Z,76.21
2019-02-02T21:17:14.493Z,75.88
2019-02-02T21:19:19.438Z,75.85
2019-02-02T21:21:14.433Z,76.04
2019-02-02T21:23:14.493Z,75.93
2019-02-02T21:25:18.877Z,75.82
2019-02-02T21:27:14.459Z,76.23
2019-02-02T21:29:14.497Z,75.84
2019-02-02T21:31:14.459Z,76.27
2019-02-02T21:33:20.659Z,76.06
2019-02-02T21:35:14.486Z,76.01
2019-02-02T21:37:14.525Z,76.11
2019-02-02T21:39:14.452Z,76.34
2019-02-02T21:41:14.507Z,75.82
2019-02-02T21:43:14.471Z,76.44
2019-02-02T21:45:14.480Z,76.01
2019-02-02T21:47:18.277Z,75.97
2019-02-02T21:49:14.461Z,76.41
2019-02-02T21:51:14.467Z,75.95
2019-02-02T21:53:14.512Z,76.10
2019-02-02T21:55:16.720Z,76.11
2019-02-02T21:57:14.457Z,76.35
2019-02-02T21:59:14.497Z,76.51
2019-02-02T22:01:23.694Z,76.38
2019-02-02T22:03:14.472Z,76.08
2019-02-02T22:05:15.474Z,76.19
2019-02-02T22:07:14.433Z,76.25
2019-02-02T22:09:14.455Z,76.05
2019-02-02T22:11:14.497Z,76.24
2019-02-02T22:13:14.462Z,76.07
2019-02-02T22:15:17.258Z,76.20
2019-02-02T22:17:15.431Z,76.38
2019-02-02T22:19:14.443Z,76.38
2019-02-02T22:21:14.482Z,76.09
2019-02-02T22:23:14.502Z,75.97
2019-02-02T22:25:14.470Z,76.27
2019-02-02T22:27:14.485Z,76.17
2019-02-02T22:29:19.468Z,76.30
2019-02-02T22:31:14.472Z,76.26
2019-02-02T22:33:14.467Z,75.97
2019-02-02T22:35:14.529Z,76.07
2019-02-02T22:37:18.661Z,75.97
2019-02-02T22:39:14.497Z,76.09
2019-02-02T22:41:14.512Z,76.27
2019-02-02T22:43:16.718Z,76.28
2019-02-02T22:45:14.483Z,76.32
2019-02-02T22:47:14.509Z,76.18
2019-02-02T22:49:14.479Z,76.31
2019-02-02T22:51:14.492Z,76.10
2019-02-02T22:53:14.724Z,75.93
2019-02-02T22:55:14.487Z,76.20
2019-02-02T22:57:14.459Z,76.02
2019-02-02T22:59:19.063Z,76.01
2019-02-02T23:01:14.476Z,76.01
2019-02-02T23:03:14.474Z,76.19
2019-02-02T23:05:15.451Z,76.00
2019-02-02T23:07:19.108Z,76.26
2019-02-02T23:09:14.465Z,75.96
2019-02-02T23:11:14.514Z,76.05
2019-02-02T23:13:14.463Z,76.04
2019-02-02T23:15:14.485Z,76.20
2019-02-02T23:17:14.516Z,76.44
2019-02-02T23:19:21.062Z,75.95
2019-02-02T23:21:14.460Z,76.23
2019-02-02T23:23:14.533Z,76.34
2019-02-02T23:25:15.168Z,76.10
2019-02-02T23:27:14.485Z,76.50
2019-02-02T23:29:14.510Z,75.89
2019-02-02T23:31:14.478Z,76.41
2019-02-02T23:33:14.477Z,76.29
2019-02-02T23:35:14.510Z,75.85
2019-02-02T23:37:18.972Z,76.20
2019-02-02T23:39:19.141Z,76.06
2019-02-02T23:41:14.543Z,76.26
2019-02-02T23:43:15.416Z,76.27
2019-02-02T23:45:14.485Z,76.31
2019-02-02T23:47:14.533Z,75.95
2019-02-02T23:49:14.475Z,76.30
2019-02-02T23:51:14.499Z,76.33
2019-02-02T23:53:14.518Z,76.12
2019-02-02T23:55:14.483Z,76.23
2019-02-02T23:57:14.496Z,76.25
2019-02-02T23:59:14.540Z,76.33
